createdAt,value
2018-03-08T00:02:15.814Z,5.60
2018-03-08T00:04:45.050Z,5.60
2018-03-08T00:07:14.315Z,5.70
2018-03-08T00:09:44.355Z,5.60
2018-03-08T00:12:13.631Z,5.60
2018-03-08T00:14:42.865Z,5.60
2018-03-08T00:17:12.123Z,5.50
2018-03-08T00:19:42.137Z,5.40
2018-03-08T00:22:11.393Z,5.30
2018-03-08T00:24:40.665Z,5.40
2018-03-08T00:27:09.902Z,5.30
2018-03-08T00:29:39.179Z,5.40
2018-03-08T00:32:09.214Z,5.40
2018-03-08T00:34:38.566Z,5.40
2018-03-08T00:37:07.793Z,5.50
2018-03-08T00:39:37.075Z,5.40
2018-03-08T00:42:07.073Z,5.50
2018-03-08T00:44:36.320Z,5.40
2018-03-08T00:47:05.561Z,5.40
2018-03-08T00:49:34.839Z,5.50
2018-03-08T00:52:04.069Z,5.30
2018-03-08T00:54:33.321Z,5.40
2018-03-08T00:57:02.585Z,5.30
2018-03-08T00:59:32.622Z,5.30
2018-03-08T01:02:01.858Z,5.30
2018-03-08T01:04:31.130Z,5.30
2018-03-08T01:07:01.148Z,5.20
2018-03-08T01:09:30.410Z,5.20
2018-03-08T01:11:59.688Z,5.10
2018-03-08T01:14:28.914Z,5.00
2018-03-08T01:16:58.938Z,5.00
2018-03-08T01:19:28.247Z,4.90
2018-03-08T01:21:58.275Z,5.10
2018-03-08T01:24:27.479Z,5.10
2018-03-08T01:26:56.854Z,5.10
2018-03-08T01:29:26.899Z,5.20
2018-03-08T01:31:56.137Z,5.20
2018-03-08T01:34:25.378Z,5.20
2018-03-08T01:36:55.478Z,5.30
2018-03-08T01:39:24.990Z,5.30
2018-03-08T01:41:54.212Z,5.20
2018-03-08T01:44:23.634Z,5.10
2018-03-08T01:46:52.895Z,4.90
2018-03-08T01:49:22.175Z,4.70
2018-03-08T01:52:09.246Z,4.60
2018-03-08T01:54:38.509Z,4.60
2018-03-08T01:57:07.766Z,4.50
2018-03-08T01:59:37.284Z,4.50
2018-03-08T02:02:07.250Z,4.40
2018-03-08T02:04:36.517Z,4.30
2018-03-08T02:07:05.813Z,4.40
2018-03-08T02:09:35.050Z,4.40
2018-03-08T02:12:05.065Z,4.40
2018-03-08T02:14:34.317Z,4.40
2018-03-08T02:17:03.648Z,4.30
2018-03-08T02:19:32.888Z,4.30
2018-03-08T02:22:02.969Z,4.10
2018-03-08T02:24:32.193Z,4.10
2018-03-08T02:27:01.518Z,4.00
2018-03-08T02:29:30.766Z,3.90
2018-03-08T02:32:00.003Z,3.80
2018-03-08T02:34:30.122Z,3.60
2018-03-08T02:37:00.133Z,3.50
2018-03-08T02:39:29.406Z,3.50
2018-03-08T02:41:58.686Z,3.30
2018-03-08T02:44:28.193Z,3.20
2018-03-08T02:46:57.501Z,3.20
2018-03-08T02:49:26.744Z,3.00
2018-03-08T02:51:56.861Z,3.00
2018-03-08T02:54:26.134Z,3.00
2018-03-08T02:56:55.385Z,3.10
2018-03-08T02:59:24.634Z,3.10
2018-03-08T03:01:53.875Z,3.20
2018-03-08T03:04:23.873Z,3.40
2018-03-08T03:06:53.158Z,3.40
2018-03-08T03:09:22.381Z,3.50
2018-03-08T03:11:52.646Z,3.40
2018-03-08T03:14:21.897Z,3.40
2018-03-08T03:16:51.154Z,3.40
2018-03-08T03:19:20.401Z,3.30
2018-03-08T03:21:49.642Z,3.30
2018-03-08T03:24:18.895Z,3.20
2018-03-08T03:26:48.130Z,3.20
2018-03-08T03:29:17.366Z,3.10
2018-03-08T03:31:46.627Z,3.10
2018-03-08T03:34:15.885Z,3.00
2018-03-08T03:36:46.662Z,2.80
2018-03-08T03:39:15.917Z,2.80
2018-03-08T03:41:45.346Z,2.80
2018-03-08T03:44:14.623Z,2.70
2018-03-08T03:46:43.978Z,2.60
2018-03-08T03:49:13.250Z,2.50
2018-03-08T03:51:43.878Z,2.40
2018-03-08T03:54:13.129Z,2.40
2018-03-08T03:56:42.374Z,2.30
2018-03-08T03:59:11.630Z,2.30
2018-03-08T04:01:41.047Z,2.20
2018-03-08T04:04:10.315Z,2.10
2018-03-08T04:06:40.326Z,2.00
2018-03-08T04:09:09.589Z,2.00
2018-03-08T04:11:38.845Z,2.00
2018-03-08T04:14:08.141Z,1.90
2018-03-08T04:16:37.586Z,1.80
2018-03-08T04:19:07.083Z,1.70
2018-03-08T04:21:36.342Z,1.70
2018-03-08T04:24:05.603Z,1.60
2018-03-08T04:26:34.861Z,1.60
2018-03-08T04:29:04.227Z,1.50
2018-03-08T04:31:33.461Z,1.50
2018-03-08T04:34:02.780Z,1.40
2018-03-08T04:36:32.014Z,1.40
2018-03-08T04:39:01.238Z,1.40
2018-03-08T04:41:30.558Z,1.40
2018-03-08T04:43:59.938Z,1.40
2018-03-08T04:46:29.949Z,1.40
2018-03-08T04:48:59.212Z,1.40
2018-03-08T04:51:28.468Z,1.50
2018-03-08T04:53:58.471Z,1.60
2018-03-08T04:56:27.724Z,1.60
2018-03-08T04:58:57.160Z,1.60
2018-03-08T05:01:26.448Z,1.60
2018-03-08T05:03:55.712Z,1.70
2018-03-08T05:06:24.961Z,1.70
2018-03-08T05:08:54.413Z,1.80
2018-03-08T05:11:23.657Z,1.90
2018-03-08T05:13:52.914Z,2.10
2018-03-08T05:16:22.324Z,2.20
2018-03-08T05:18:51.562Z,2.30
2018-03-08T05:21:20.835Z,2.40
2018-03-08T05:23:50.072Z,2.40
2018-03-08T05:26:19.327Z,2.50
2018-03-08T05:28:48.581Z,2.60
2018-03-08T05:31:17.845Z,2.70
2018-03-08T05:33:47.082Z,2.70
2018-03-08T05:36:16.387Z,2.80
2018-03-08T05:38:46.420Z,2.70
2018-03-08T05:41:16.434Z,2.70
2018-03-08T05:43:45.698Z,2.70
2018-03-08T05:46:14.946Z,2.80
2018-03-08T05:48:44.978Z,2.90
2018-03-08T05:51:14.250Z,2.80
2018-03-08T05:53:43.518Z,2.80
2018-03-08T05:56:12.875Z,2.90
2018-03-08T05:58:42.904Z,2.90
2018-03-08T06:01:14.850Z,3.10
2018-03-08T06:03:45.597Z,3.10
2018-03-08T06:06:14.979Z,3.10
2018-03-08T06:08:44.232Z,3.10
2018-03-08T06:11:14.287Z,3.10
2018-03-08T06:13:43.546Z,3.10
2018-03-08T06:16:12.791Z,3.10
2018-03-08T06:18:46.183Z,3.10
2018-03-08T06:21:15.445Z,3.20
2018-03-08T06:23:44.888Z,3.30
2018-03-08T06:26:14.195Z,3.30
2018-03-08T06:28:43.398Z,3.40
2018-03-08T06:31:12.670Z,3.50
2018-03-08T06:33:42.006Z,3.50
2018-03-08T06:36:11.259Z,3.60
2018-03-08T06:38:41.261Z,3.70
2018-03-08T06:41:10.556Z,3.70
2018-03-08T06:43:39.809Z,3.80
2018-03-08T06:46:09.074Z,3.80
2018-03-08T06:48:39.095Z,4.00
2018-03-08T06:51:08.379Z,3.90
2018-03-08T06:53:37.638Z,4.00
2018-03-08T06:56:06.924Z,4.10
2018-03-08T06:58:36.407Z,4.20
2018-03-08T07:01:06.423Z,4.30
2018-03-08T07:03:35.708Z,4.30
2018-03-08T07:06:04.970Z,4.60
2018-03-08T07:08:34.215Z,4.80
2018-03-08T07:11:03.683Z,4.90
2018-03-08T07:13:32.947Z,5.00
2018-03-08T07:16:02.187Z,5.00
2018-03-08T07:18:31.601Z,5.00
2018-03-08T07:21:00.886Z,5.00
2018-03-08T07:23:30.149Z,5.00
2018-03-08T07:26:01.616Z,5.00
2018-03-08T07:28:30.895Z,5.00
2018-03-08T07:31:00.159Z,5.00
2018-03-08T07:33:29.374Z,5.10
2018-03-08T07:35:58.641Z,5.10
2018-03-08T07:38:28.535Z,5.10
2018-03-08T07:40:57.791Z,5.10
2018-03-08T07:43:27.045Z,5.20
2018-03-08T07:45:56.278Z,5.20
2018-03-08T07:48:25.577Z,5.40
2018-03-08T07:50:54.810Z,5.50
2018-03-08T07:53:24.062Z,5.70
2018-03-08T07:55:53.319Z,5.90
2018-03-08T07:58:22.586Z,6.10
2018-03-08T08:00:51.866Z,6.20
2018-03-08T08:03:21.130Z,6.40
2018-03-08T08:06:07.972Z,6.80
2018-03-08T08:08:52.969Z,7.30
2018-03-08T08:11:22.925Z,7.60
2018-03-08T08:13:52.943Z,9.20
2018-03-08T08:16:22.867Z,9.20
2018-03-08T08:18:52.336Z,9.10
2018-03-08T08:21:21.585Z,8.80
2018-03-08T08:23:50.858Z,8.50
2018-03-08T08:26:20.829Z,8.10
2018-03-08T08:28:50.084Z,7.90
2018-03-08T08:31:19.481Z,7.80
2018-03-08T08:33:48.749Z,7.90
2018-03-08T08:36:18.003Z,7.70
2018-03-08T08:38:48.065Z,7.80
2018-03-08T08:41:17.328Z,7.70
2018-03-08T08:43:46.611Z,8.00
2018-03-08T08:46:15.872Z,8.20
2018-03-08T08:48:45.174Z,8.30
2018-03-08T08:51:14.407Z,8.10
2018-03-08T08:53:43.650Z,8.00
2018-03-08T08:56:12.901Z,8.10
2018-03-08T08:58:42.167Z,8.20
2018-03-08T09:01:11.553Z,8.00
2018-03-08T09:03:41.086Z,7.70
2018-03-08T09:06:10.330Z,7.50
2018-03-08T09:08:39.587Z,7.00
2018-03-08T09:11:09.052Z,6.90
2018-03-08T09:13:38.304Z,6.60
2018-03-08T09:16:07.563Z,6.60
2018-03-08T09:18:36.834Z,6.60
2018-03-08T09:21:06.131Z,6.70
2018-03-08T09:23:35.364Z,6.60
2018-03-08T09:26:04.662Z,6.70
2018-03-08T09:28:33.934Z,6.60
2018-03-08T09:31:03.969Z,6.80
2018-03-08T09:33:33.375Z,6.80
2018-03-08T09:36:04.115Z,6.80
2018-03-08T09:38:33.411Z,6.80
2018-03-08T09:41:03.454Z,6.80
2018-03-08T09:43:32.728Z,6.80
2018-03-08T09:46:02.006Z,6.90
2018-03-08T09:48:31.254Z,6.90
2018-03-08T09:51:00.508Z,6.80
2018-03-08T09:53:31.303Z,6.90
2018-03-08T09:56:00.937Z,6.90
2018-03-08T09:58:30.263Z,7.00
2018-03-08T10:00:59.566Z,7.00
2018-03-08T10:03:29.001Z,7.10
2018-03-08T10:05:58.287Z,7.10
2018-03-08T10:08:27.791Z,7.20
2018-03-08T10:10:57.171Z,7.20
2018-03-08T10:13:26.471Z,7.30
2018-03-08T10:15:55.703Z,7.40
2018-03-08T10:18:24.967Z,7.70
2018-03-08T10:20:54.228Z,7.80
2018-03-08T10:23:24.099Z,8.00
2018-03-08T10:25:53.361Z,8.30
2018-03-08T10:28:22.606Z,8.80
2018-03-08T10:30:52.668Z,8.90
2018-03-08T10:33:21.893Z,8.90
2018-03-08T10:35:51.124Z,8.80
2018-03-08T10:38:21.201Z,8.90
2018-03-08T10:40:50.447Z,8.90
2018-03-08T10:43:19.724Z,9.40
2018-03-08T10:45:49.148Z,9.80
2018-03-08T10:48:19.178Z,10.20
2018-03-08T10:50:48.462Z,10.20
2018-03-08T10:53:17.740Z,10.30
2018-03-08T10:55:46.982Z,10.40
2018-03-08T10:58:17.022Z,10.50
2018-03-08T11:00:47.165Z,10.50
2018-03-08T11:03:16.467Z,10.60
2018-03-08T11:05:46.653Z,10.50
2018-03-08T11:08:15.931Z,10.70
2018-03-08T11:10:45.255Z,11.20
2018-03-08T11:13:14.517Z,11.70
2018-03-08T11:15:43.798Z,12.20
2018-03-08T11:18:13.093Z,13.40
2018-03-08T11:20:42.319Z,12.80
2018-03-08T11:23:11.770Z,12.20
2018-03-08T11:25:41.084Z,12.30
2018-03-08T11:28:10.351Z,13.30
2018-03-08T11:30:40.505Z,13.60
2018-03-08T11:33:09.766Z,13.60
2018-03-08T11:35:39.883Z,12.50
2018-03-08T11:38:09.949Z,12.20
2018-03-08T11:40:40.911Z,12.10
2018-03-08T11:43:08.683Z,11.90
2018-03-08T11:45:37.959Z,11.70
2018-03-08T11:48:07.409Z,11.30
2018-03-08T11:50:36.692Z,10.60
2018-03-08T11:53:05.965Z,10.60
2018-03-08T11:55:35.258Z,10.80
2018-03-08T11:58:04.548Z,11.10
2018-03-08T12:00:33.914Z,11.20
2018-03-08T12:03:03.444Z,11.50
2018-03-08T12:05:33.482Z,11.20
2018-03-08T12:08:02.855Z,11.20
2018-03-08T12:10:33.008Z,11.10
2018-03-08T12:13:02.493Z,11.10
2018-03-08T12:15:31.757Z,11.20
2018-03-08T12:18:01.164Z,11.20
2018-03-08T12:20:30.412Z,11.20
2018-03-08T12:22:59.680Z,11.00
2018-03-08T12:25:29.736Z,10.60
2018-03-08T12:27:58.991Z,10.60
2018-03-08T12:30:28.237Z,10.30
2018-03-08T12:32:57.500Z,10.30
2018-03-08T12:35:26.786Z,10.30
2018-03-08T12:37:56.049Z,10.30
2018-03-08T12:40:26.027Z,10.20
2018-03-08T12:42:56.173Z,10.30
2018-03-08T12:45:25.441Z,10.30
2018-03-08T12:47:54.697Z,10.30
2018-03-08T12:50:24.260Z,10.50
2018-03-08T12:52:54.294Z,11.70
2018-03-08T12:55:23.576Z,11.70
2018-03-08T12:57:52.860Z,12.50
2018-03-08T13:00:22.095Z,12.50
2018-03-08T13:02:51.412Z,12.40
2018-03-08T13:05:20.664Z,12.40
2018-03-08T13:07:49.938Z,12.20
2018-03-08T13:10:19.551Z,12.10
2018-03-08T13:12:48.827Z,12.10
2018-03-08T13:15:18.092Z,12.00
2018-03-08T13:17:48.327Z,11.70
2018-03-08T13:20:17.595Z,11.70
2018-03-08T13:22:46.886Z,11.40
2018-03-08T13:25:16.855Z,11.30
2018-03-08T13:27:46.197Z,11.10
2018-03-08T13:30:15.515Z,10.90
2018-03-08T13:32:44.825Z,10.80
2018-03-08T13:35:14.677Z,10.80
2018-03-08T13:37:43.983Z,10.80
2018-03-08T13:40:13.203Z,10.70
2018-03-08T13:42:42.530Z,10.60
2018-03-08T13:45:12.591Z,10.60
2018-03-08T13:47:42.686Z,10.60
2018-03-08T13:50:11.993Z,10.60
2018-03-08T13:52:42.010Z,10.60
2018-03-08T13:55:11.449Z,10.60
2018-03-08T13:57:40.715Z,10.60
2018-03-08T14:00:10.042Z,10.60
2018-03-08T14:02:39.273Z,10.50
2018-03-08T14:05:08.554Z,10.60
2018-03-08T14:07:37.819Z,10.40
2018-03-08T14:10:07.122Z,10.50
2018-03-08T14:12:36.429Z,10.40
2018-03-08T14:15:05.731Z,10.50
2018-03-08T14:17:35.787Z,10.50
2018-03-08T14:20:05.076Z,10.50
2018-03-08T14:22:34.336Z,10.50
2018-03-08T14:25:03.841Z,10.60
2018-03-08T14:27:33.919Z,10.70
2018-03-08T14:30:03.198Z,10.70
2018-03-08T14:32:32.542Z,10.80
2018-03-08T14:35:01.832Z,10.90
2018-03-08T14:37:31.103Z,11.10
2018-03-08T14:40:01.110Z,11.20
2018-03-08T14:42:30.443Z,11.20
2018-03-08T14:44:59.731Z,11.30
2018-03-08T14:47:29.021Z,11.20
2018-03-08T14:49:58.296Z,11.10
2018-03-08T14:52:27.637Z,10.90
2018-03-08T14:54:56.912Z,11.00
2018-03-08T14:57:27.698Z,10.80
2018-03-08T14:59:57.173Z,10.80
2018-03-08T15:02:26.503Z,10.90
2018-03-08T15:04:55.777Z,10.70
2018-03-08T15:07:25.072Z,10.60
2018-03-08T15:09:54.866Z,10.60
2018-03-08T15:12:24.189Z,10.70
2018-03-08T15:14:53.464Z,10.80
2018-03-08T15:17:22.734Z,11.00
2018-03-08T15:19:52.105Z,10.90
2018-03-08T15:22:21.468Z,11.10
2018-03-08T15:24:50.783Z,11.20
2018-03-08T15:27:20.062Z,11.30
2018-03-08T15:29:49.397Z,11.30
2018-03-08T15:32:18.672Z,11.20
2018-03-08T15:34:47.938Z,11.20
2018-03-08T15:37:17.250Z,11.20
2018-03-08T15:39:46.529Z,11.20
2018-03-08T15:42:15.808Z,11.10
2018-03-08T15:44:45.175Z,11.10
2018-03-08T15:47:14.424Z,11.20
2018-03-08T15:49:43.819Z,11.20
2018-03-08T15:52:13.878Z,11.20
2018-03-08T15:54:43.152Z,11.10
2018-03-08T15:57:12.473Z,11.10
2018-03-08T15:59:42.470Z,11.00
2018-03-08T16:02:12.540Z,10.90
2018-03-08T16:04:41.799Z,10.90
2018-03-08T16:10:41.147Z,11.00
2018-03-08T16:13:10.432Z,10.90
2018-03-08T16:15:39.708Z,10.70
2018-03-08T16:18:09.233Z,10.70
2018-03-08T16:20:39.265Z,10.70
2018-03-08T16:23:08.545Z,10.70
2018-03-08T16:25:37.899Z,10.60
2018-03-08T16:28:07.148Z,10.70
2018-03-08T16:30:36.420Z,10.60
2018-03-08T16:33:05.715Z,10.60
2018-03-08T16:35:35.072Z,10.50
2018-03-08T16:38:04.342Z,10.50
2018-03-08T16:40:33.752Z,10.60
2018-03-08T16:43:03.819Z,10.60
2018-03-08T16:45:33.331Z,10.60
2018-03-08T16:48:03.671Z,10.60
2018-03-08T16:50:32.909Z,10.60
2018-03-08T16:53:03.075Z,10.60
2018-03-08T16:55:32.348Z,10.60
2018-03-08T16:58:02.650Z,10.50
2018-03-08T17:00:31.910Z,10.50
2018-03-08T17:03:01.351Z,10.60
2018-03-08T17:05:30.628Z,10.60
2018-03-08T17:07:59.896Z,10.60
2018-03-08T17:10:29.188Z,10.60
2018-03-08T17:12:58.633Z,10.60
2018-03-08T17:15:28.175Z,10.70
2018-03-08T17:17:57.544Z,10.50
2018-03-08T17:20:26.832Z,10.50
2018-03-08T17:22:56.145Z,10.60
2018-03-08T17:25:25.420Z,10.60
2018-03-08T17:27:54.731Z,10.70
2018-03-08T17:30:24.053Z,10.60
2018-03-08T17:32:53.309Z,10.70
2018-03-08T17:35:22.567Z,10.40
2018-03-08T17:37:51.996Z,10.10
2018-03-08T17:40:21.895Z,10.00
2018-03-08T17:42:51.259Z,9.90
2018-03-08T17:45:21.288Z,9.70
2018-03-08T17:47:50.580Z,9.70
2018-03-08T17:50:19.831Z,9.60
2018-03-08T17:52:49.095Z,9.50
2018-03-08T17:55:18.358Z,9.30
2018-03-08T17:57:47.848Z,9.20
2018-03-08T18:00:17.404Z,9.10
2018-03-08T18:02:46.722Z,8.90
2018-03-08T18:05:16.195Z,8.70
2018-03-08T18:07:46.231Z,8.30
2018-03-08T18:10:15.737Z,8.30
2018-03-08T18:12:45.001Z,8.00
2018-03-08T18:15:14.330Z,7.60
2018-03-08T18:17:43.613Z,7.40
2018-03-08T18:20:13.123Z,7.10
2018-03-08T18:22:42.418Z,6.90
2018-03-08T18:25:11.734Z,6.80
2018-03-08T18:27:41.102Z,6.80
2018-03-08T18:30:11.849Z,6.60
2018-03-08T18:32:41.728Z,6.60
2018-03-08T18:35:12.969Z,6.50
2018-03-08T18:37:42.384Z,6.50
2018-03-08T18:40:11.913Z,6.60
2018-03-08T18:42:41.226Z,6.60
2018-03-08T18:45:11.423Z,6.50
2018-03-08T18:47:40.700Z,6.50
2018-03-08T18:50:09.988Z,6.40
2018-03-08T18:52:39.409Z,6.30
2018-03-08T18:55:09.086Z,6.20
2018-03-08T18:57:38.364Z,6.00
2018-03-08T19:00:08.398Z,5.80
2018-03-08T19:02:38.402Z,5.80
2018-03-08T19:05:07.672Z,5.80
2018-03-08T19:07:37.195Z,5.80
2018-03-08T19:10:06.484Z,5.70
2018-03-08T19:12:35.788Z,5.70
2018-03-08T19:15:05.951Z,5.90
2018-03-08T19:17:36.080Z,5.90
2018-03-08T19:20:06.256Z,5.90
2018-03-08T19:22:35.589Z,5.90
2018-03-08T19:25:05.156Z,5.90
2018-03-08T19:27:34.602Z,5.90
2018-03-08T19:30:04.651Z,5.80
2018-03-08T19:32:34.273Z,5.70
2018-03-08T19:35:03.536Z,5.80
2018-03-08T19:37:32.912Z,5.80
2018-03-08T19:40:02.184Z,5.90
2018-03-08T19:42:31.518Z,5.80
2018-03-08T19:45:00.787Z,5.80
2018-03-08T19:47:30.080Z,5.80
2018-03-08T19:49:59.517Z,5.70
2018-03-08T19:52:28.798Z,5.70
2018-03-08T19:54:58.098Z,5.60
2018-03-08T19:57:27.487Z,5.50
2018-03-08T19:59:56.833Z,5.50
2018-03-08T20:02:26.605Z,5.50
2018-03-08T20:04:55.959Z,5.40
2018-03-08T20:07:25.292Z,5.60
2018-03-08T20:09:54.722Z,5.60
2018-03-08T20:12:24.178Z,5.60
2018-03-08T20:14:53.712Z,5.50
2018-03-08T20:17:23.758Z,5.40
2018-03-08T20:19:53.224Z,5.40
2018-03-08T20:22:22.513Z,5.30
2018-03-08T20:24:52.586Z,5.30
2018-03-08T20:27:21.955Z,5.30
2018-03-08T20:29:51.249Z,5.40
2018-03-08T20:32:20.681Z,5.30
2018-03-08T20:34:49.983Z,5.20
2018-03-08T20:37:19.455Z,5.10
2018-03-08T20:39:48.842Z,5.10
2018-03-08T20:42:18.482Z,5.00
2018-03-08T20:44:48.675Z,5.10
2018-03-08T20:47:18.134Z,5.10
2018-03-08T20:49:47.660Z,5.10
2018-03-08T20:52:17.026Z,5.20
2018-03-08T20:54:46.722Z,5.20
2018-03-08T20:57:15.993Z,5.20
2018-03-08T20:59:45.425Z,5.20
2018-03-08T21:02:14.978Z,5.20
2018-03-08T21:04:44.355Z,5.10
2018-03-08T21:07:13.629Z,5.10
2018-03-08T21:09:42.890Z,5.10
2018-03-08T21:12:12.419Z,5.00
2018-03-08T21:14:41.913Z,5.00
2018-03-08T21:17:11.189Z,5.00
2018-03-08T21:19:40.588Z,4.90
2018-03-08T21:22:09.943Z,4.80
2018-03-08T21:24:39.213Z,4.60
2018-03-08T21:27:08.568Z,4.40
2018-03-08T21:29:38.228Z,4.30
2018-03-08T21:32:07.478Z,4.40
2018-03-08T21:34:36.869Z,4.20
2018-03-08T21:37:06.983Z,4.10
2018-03-08T21:39:36.426Z,4.00
2018-03-08T21:42:05.755Z,4.10
2018-03-08T21:44:35.097Z,4.00
2018-03-08T21:47:04.589Z,4.00
2018-03-08T21:49:34.656Z,3.90
2018-03-08T21:52:04.100Z,4.00
2018-03-08T21:54:33.402Z,4.00
2018-03-08T21:57:02.698Z,3.90
2018-03-08T21:59:32.011Z,3.60
2018-03-08T22:02:01.298Z,3.40
2018-03-08T22:04:31.315Z,3.40
2018-03-08T22:07:00.772Z,3.40
2018-03-08T22:09:30.093Z,3.40
2018-03-08T22:11:59.391Z,3.30
2018-03-08T22:14:28.702Z,3.40
2018-03-08T22:16:58.031Z,3.40
2018-03-08T22:19:27.381Z,3.40
2018-03-08T22:21:56.634Z,3.40
2018-03-08T22:24:26.010Z,3.30
2018-03-08T22:26:55.266Z,3.30
2018-03-08T22:29:24.582Z,3.30
2018-03-08T22:31:53.943Z,3.30
2018-03-08T22:34:23.244Z,3.20
2018-03-08T22:36:52.511Z,3.30
2018-03-08T22:39:21.814Z,3.30
2018-03-08T22:41:51.097Z,3.30
2018-03-08T22:44:20.451Z,3.40
2018-03-08T22:46:49.755Z,3.40
2018-03-08T22:49:19.039Z,3.30
2018-03-08T22:51:48.354Z,3.40
2018-03-08T22:54:17.638Z,3.40
2018-03-08T22:56:46.943Z,3.30
2018-03-08T22:59:16.315Z,3.30
2018-03-08T23:02:16.464Z,3.30
2018-03-08T23:04:45.752Z,3.40
2018-03-08T23:07:15.032Z,3.40
2018-03-08T23:09:44.323Z,3.30
2018-03-08T23:12:14.377Z,3.20
2018-03-08T23:14:43.675Z,3.20
2018-03-08T23:17:13.007Z,3.10
2018-03-08T23:19:42.334Z,3.10
2018-03-08T23:22:11.687Z,3.10
2018-03-08T23:24:40.975Z,3.10
2018-03-08T23:27:10.296Z,3.10
2018-03-08T23:29:39.738Z,3.10
2018-03-08T23:32:09.193Z,3.10
2018-03-08T23:34:38.511Z,3.10
2018-03-08T23:37:07.779Z,3.10
2018-03-08T23:39:37.082Z,2.80
2018-03-08T23:42:06.358Z,2.70
2018-03-08T23:44:35.786Z,2.60
2018-03-08T23:47:05.854Z,2.40
2018-03-08T23:49:35.230Z,2.40
2018-03-08T23:52:04.519Z,2.40
2018-03-08T23:54:34.294Z,2.40
2018-03-08T23:57:03.635Z,2.30
2018-03-08T23:59:32.883Z,2.20
